sensor_id;sensor_type;location;lat;lon;timestamp;P1;durP1;ratioP1;P2;durP2;ratioP2
29430;SDS011;16404;49.902;10.074;2023-01-10T00:00:13;4.15;;;2.03;;
29430;SDS011;16404;49.902;10.074;2023-01-10T00:02:57;2.70;;;1.95;;
29430;SDS011;16404;49.902;10.074;2023-01-10T00:05:42;6.43;;;1.80;;
29430;SDS011;16404;49.902;10.074;2023-01-10T00:08:27;2.08;;;1.67;;
29430;SDS011;16404;49.902;10.074;2023-01-10T00:11:11;5.90;;;2.17;;
29430;SDS011;16404;49.902;10.074;2023-01-10T00:14:14;4.45;;;1.95;;
29430;SDS011;16404;49.902;10.074;2023-01-10T00:17:00;5.22;;;2.08;;
29430;SDS011;16404;49.902;10.074;2023-01-10T00:19:45;4.20;;;1.75;;
29430;SDS011;16404;49.902;10.074;2023-01-10T00:22:30;2.80;;;1.65;;
29430;SDS011;16404;49.902;10.074;2023-01-10T00:25:14;5.68;;;2.08;;
29430;SDS011;16404;49.902;10.074;2023-01-10T00:27:59;9.48;;;1.90;;
29430;SDS011;16404;49.902;10.074;2023-01-10T00:31:02;6.65;;;2.17;;
29430;SDS011;16404;49.902;10.074;2023-01-10T00:33:49;5.10;;;2.10;;
29430;SDS011;16404;49.902;10.074;2023-01-10T00:36:34;6.78;;;2.17;;
29430;SDS011;16404;49.902;10.074;2023-01-10T00:39:18;4.43;;;1.70;;
29430;SDS011;16404;49.902;10.074;2023-01-10T00:45:06;2.88;;;1.63;;
29430;SDS011;16404;49.902;10.074;2023-01-10T00:47:51;6.18;;;2.08;;
29430;SDS011;16404;49.902;10.074;2023-01-10T00:50:36;5.57;;;2.10;;
29430;SDS011;16404;49.902;10.074;2023-01-10T00:53:21;3.65;;;1.88;;
29430;SDS011;16404;49.902;10.074;2023-01-10T00:56:05;3.88;;;1.67;;
29430;SDS011;16404;49.902;10.074;2023-01-10T00:58:50;3.28;;;1.92;;
29430;SDS011;16404;49.902;10.074;2023-01-10T01:01:35;7.03;;;1.90;;
29430;SDS011;16404;49.902;10.074;2023-01-10T01:04:20;4.57;;;1.80;;
29430;SDS011;16404;49.902;10.074;2023-01-10T01:07:04;2.75;;;1.90;;
29430;SDS011;16404;49.902;10.074;2023-01-10T01:09:49;3.53;;;1.98;;
29430;SDS011;16404;49.902;10.074;2023-01-10T01:12:57;5.05;;;2.50;;
29430;SDS011;16404;49.902;10.074;2023-01-10T01:15:43;3.75;;;2.45;;
29430;SDS011;16404;49.902;10.074;2023-01-10T01:21:12;4.35;;;2.08;;
29430;SDS011;16404;49.902;10.074;2023-01-10T01:23:57;5.63;;;2.25;;
29430;SDS011;16404;49.902;10.074;2023-01-10T01:26:42;4.90;;;2.05;;
29430;SDS011;16404;49.902;10.074;2023-01-10T01:29:26;6.40;;;1.90;;
29430;SDS011;16404;49.902;10.074;2023-01-10T01:32:11;8.30;;;2.45;;
29430;SDS011;16404;49.902;10.074;2023-01-10T01:34:55;2.03;;;1.73;;
29430;SDS011;16404;49.902;10.074;2023-01-10T01:37:40;5.00;;;2.10;;
29430;SDS011;16404;49.902;10.074;2023-01-10T01:43:23;4.07;;;1.80;;
29430;SDS011;16404;49.902;10.074;2023-01-10T01:46:09;5.00;;;1.85;;
29430;SDS011;16404;49.902;10.074;2023-01-10T01:48:53;3.78;;;2.00;;
29430;SDS011;16404;49.902;10.074;2023-01-10T01:51:38;3.33;;;1.85;;
29430;SDS011;16404;49.902;10.074;2023-01-10T01:54:23;4.45;;;2.05;;
29430;SDS011;16404;49.902;10.074;2023-01-10T01:57:10;4.20;;;1.90;;
29430;SDS011;16404;49.902;10.074;2023-01-10T01:59:57;4.50;;;2.05;;
29430;SDS011;16404;49.902;10.074;2023-01-10T02:02:55;3.47;;;2.10;;
29430;SDS011;16404;49.902;10.074;2023-01-10T02:05:42;5.68;;;1.83;;
29430;SDS011;16404;49.902;10.074;2023-01-10T02:08:28;5.75;;;2.05;;
29430;SDS011;16404;49.902;10.074;2023-01-10T02:11:13;4.20;;;2.05;;
29430;SDS011;16404;49.902;10.074;2023-01-10T02:13:57;4.45;;;2.40;;
29430;SDS011;16404;49.902;10.074;2023-01-10T02:16:43;5.05;;;2.30;;
29430;SDS011;16404;49.902;10.074;2023-01-10T02:19:29;4.18;;;2.20;;
29430;SDS011;16404;49.902;10.074;2023-01-10T02:37:57;7.65;;;2.45;;
29430;SDS011;16404;49.902;10.074;2023-01-10T02:44:13;2.92;;;2.20;;
29430;SDS011;16404;49.902;10.074;2023-01-10T02:47:04;4.53;;;2.47;;
29430;SDS011;16404;49.902;10.074;2023-01-10T02:49:50;4.50;;;2.47;;
29430;SDS011;16404;49.902;10.074;2023-01-10T02:52:35;3.63;;;2.45;;
29430;SDS011;16404;49.902;10.074;2023-01-10T02:55:20;5.47;;;2.78;;
29430;SDS011;16404;49.902;10.074;2023-01-10T02:58:22;6.07;;;2.60;;
29430;SDS011;16404;49.902;10.074;2023-01-10T03:13:20;4.68;;;2.78;;
29430;SDS011;16404;49.902;10.074;2023-01-10T03:16:18;5.07;;;3.28;;
29430;SDS011;16404;49.902;10.074;2023-01-10T03:19:10;4.85;;;2.67;;
29430;SDS011;16404;49.902;10.074;2023-01-10T03:21:58;5.50;;;2.92;;
29430;SDS011;16404;49.902;10.074;2023-01-10T03:24:47;4.10;;;3.10;;
29430;SDS011;16404;49.902;10.074;2023-01-10T03:27:43;8.02;;;2.90;;
29430;SDS011;16404;49.902;10.074;2023-01-10T03:31:07;6.93;;;2.80;;
29430;SDS011;16404;49.902;10.074;2023-01-10T03:33:56;4.90;;;2.65;;
29430;SDS011;16404;49.902;10.074;2023-01-10T03:43:02;5.72;;;2.88;;
29430;SDS011;16404;49.902;10.074;2023-01-10T03:49:32;6.20;;;3.35;;
29430;SDS011;16404;49.902;10.074;2023-01-10T03:52:20;4.22;;;2.97;;
29430;SDS011;16404;49.902;10.074;2023-01-10T03:55:06;6.85;;;3.20;;
29430;SDS011;16404;49.902;10.074;2023-01-10T03:57:53;6.07;;;3.10;;
29430;SDS011;16404;49.902;10.074;2023-01-10T04:00:38;8.30;;;3.60;;
29430;SDS011;16404;49.902;10.074;2023-01-10T04:03:24;5.45;;;3.38;;
29430;SDS011;16404;49.902;10.074;2023-01-10T04:06:08;6.25;;;3.45;;
29430;SDS011;16404;49.902;10.074;2023-01-10T04:08:53;6.65;;;3.55;;
29430;SDS011;16404;49.902;10.074;2023-01-10T04:11:38;11.35;;;3.53;;
29430;SDS011;16404;49.902;10.074;2023-01-10T04:14:22;9.80;;;4.32;;
29430;SDS011;16404;49.902;10.074;2023-01-10T04:17:07;6.15;;;3.50;;
29430;SDS011;16404;49.902;10.074;2023-01-10T04:19:51;6.90;;;3.58;;
29430;SDS011;16404;49.902;10.074;2023-01-10T04:22:36;6.07;;;4.00;;
29430;SDS011;16404;49.902;10.074;2023-01-10T04:25:21;8.93;;;5.45;;
29430;SDS011;16404;49.902;10.074;2023-01-10T04:28:06;10.85;;;5.32;;
29430;SDS011;16404;49.902;10.074;2023-01-10T04:30:51;14.13;;;5.93;;
29430;SDS011;16404;49.902;10.074;2023-01-10T04:33:35;10.15;;;4.53;;
29430;SDS011;16404;49.902;10.074;2023-01-10T04:36:22;9.00;;;3.97;;
29430;SDS011;16404;49.902;10.074;2023-01-10T04:39:06;7.57;;;3.70;;
29430;SDS011;16404;49.902;10.074;2023-01-10T04:41:51;9.25;;;3.20;;
29430;SDS011;16404;49.902;10.074;2023-01-10T04:44:35;6.15;;;3.78;;
29430;SDS011;16404;49.902;10.074;2023-01-10T04:47:20;5.32;;;3.83;;
29430;SDS011;16404;49.902;10.074;2023-01-10T04:50:05;8.95;;;3.67;;
29430;SDS011;16404;49.902;10.074;2023-01-10T04:52:49;4.53;;;3.20;;
29430;SDS011;16404;49.902;10.074;2023-01-10T04:55:34;7.13;;;3.60;;
29430;SDS011;16404;49.902;10.074;2023-01-10T04:58:18;8.70;;;3.50;;
29430;SDS011;16404;49.902;10.074;2023-01-10T05:01:07;7.55;;;3.45;;
29430;SDS011;16404;49.902;10.074;2023-01-10T05:03:54;9.68;;;3.17;;
29430;SDS011;16404;49.902;10.074;2023-01-10T05:06:38;9.52;;;3.80;;
29430;SDS011;16404;49.902;10.074;2023-01-10T05:09:23;6.82;;;3.70;;
29430;SDS011;16404;49.902;10.074;2023-01-10T05:12:08;6.60;;;3.35;;
29430;SDS011;16404;49.902;10.074;2023-01-10T05:14:53;7.05;;;3.25;;
29430;SDS011;16404;49.902;10.074;2023-01-10T05:17:37;12.32;;;3.47;;
29430;SDS011;16404;49.902;10.074;2023-01-10T05:20:22;5.55;;;3.40;;
29430;SDS011;16404;49.902;10.074;2023-01-10T05:23:06;5.30;;;3.38;;
29430;SDS011;16404;49.902;10.074;2023-01-10T05:25:51;5.60;;;3.10;;
29430;SDS011;16404;49.902;10.074;2023-01-10T05:28:36;6.22;;;3.15;;
29430;SDS011;16404;49.902;10.074;2023-01-10T05:31:21;12.73;;;3.15;;
29430;SDS011;16404;49.902;10.074;2023-01-10T05:34:05;8.88;;;4.18;;
29430;SDS011;16404;49.902;10.074;2023-01-10T05:36:50;6.88;;;3.40;;
29430;SDS011;16404;49.902;10.074;2023-01-10T05:39:34;5.88;;;3.15;;
29430;SDS011;16404;49.902;10.074;2023-01-10T05:42:19;6.72;;;3.22;;
29430;SDS011;16404;49.902;10.074;2023-01-10T05:45:04;9.43;;;3.30;;
29430;SDS011;16404;49.902;10.074;2023-01-10T05:50:33;6.32;;;2.70;;
29430;SDS011;16404;49.902;10.074;2023-01-10T05:53:18;8.75;;;2.80;;
29430;SDS011;16404;49.902;10.074;2023-01-10T05:56:03;8.65;;;3.05;;
29430;SDS011;16404;49.902;10.074;2023-01-10T05:58:47;7.15;;;3.55;;
29430;SDS011;16404;49.902;10.074;2023-01-10T06:01:32;14.60;;;5.15;;
29430;SDS011;16404;49.902;10.074;2023-01-10T06:04:16;9.90;;;4.88;;
29430;SDS011;16404;49.902;10.074;2023-01-10T06:07:01;13.18;;;6.88;;
29430;SDS011;16404;49.902;10.074;2023-01-10T06:09:45;16.85;;;6.57;;
29430;SDS011;16404;49.902;10.074;2023-01-10T06:12:30;12.38;;;5.80;;
29430;SDS011;16404;49.902;10.074;2023-01-10T06:15:15;28.60;;;9.43;;
29430;SDS011;16404;49.902;10.074;2023-01-10T06:18:00;25.05;;;10.80;;
29430;SDS011;16404;49.902;10.074;2023-01-10T06:20:44;19.15;;;7.72;;
29430;SDS011;16404;49.902;10.074;2023-01-10T06:23:29;19.17;;;7.03;;
29430;SDS011;16404;49.902;10.074;2023-01-10T06:26:14;25.63;;;9.60;;
29430;SDS011;16404;49.902;10.074;2023-01-10T06:28:58;108.50;;;26.50;;
29430;SDS011;16404;49.902;10.074;2023-01-10T06:31:43;49.95;;;16.20;;
29430;SDS011;16404;49.902;10.074;2023-01-10T06:34:27;36.55;;;13.13;;
29430;SDS011;16404;49.902;10.074;2023-01-10T06:37:12;11.57;;;3.85;;
29430;SDS011;16404;49.902;10.074;2023-01-10T06:39:56;8.43;;;4.60;;
29430;SDS011;16404;49.902;10.074;2023-01-10T06:42:41;12.10;;;4.43;;
29430;SDS011;16404;49.902;10.074;2023-01-10T06:45:25;7.28;;;4.13;;
29430;SDS011;16404;49.902;10.074;2023-01-10T06:48:10;12.25;;;4.15;;
29430;SDS011;16404;49.902;10.074;2023-01-10T06:50:55;10.57;;;3.17;;
29430;SDS011;16404;49.902;10.074;2023-01-10T06:53:39;12.10;;;3.20;;
29430;SDS011;16404;49.902;10.074;2023-01-10T06:56:24;10.25;;;3.00;;
29430;SDS011;16404;49.902;10.074;2023-01-10T06:59:09;9.55;;;2.92;;
29430;SDS011;16404;49.902;10.074;2023-01-10T07:01:53;11.50;;;3.20;;
29430;SDS011;16404;49.902;10.074;2023-01-10T07:04:38;12.77;;;2.92;;
29430;SDS011;16404;49.902;10.074;2023-01-10T07:07:22;8.32;;;2.50;;
29430;SDS011;16404;49.902;10.074;2023-01-10T07:10:07;12.48;;;3.17;;
29430;SDS011;16404;49.902;10.074;2023-01-10T07:15:40;6.15;;;2.90;;
29430;SDS011;16404;49.902;10.074;2023-01-10T07:18:24;10.30;;;3.25;;
29430;SDS011;16404;49.902;10.074;2023-01-10T07:21:09;15.60;;;4.20;;
29430;SDS011;16404;49.902;10.074;2023-01-10T07:23:54;11.18;;;3.60;;
29430;SDS011;16404;49.902;10.074;2023-01-10T07:26:39;10.90;;;3.85;;
29430;SDS011;16404;49.902;10.074;2023-01-10T07:29:23;9.05;;;3.80;;
29430;SDS011;16404;49.902;10.074;2023-01-10T07:32:08;15.55;;;5.20;;
29430;SDS011;16404;49.902;10.074;2023-01-10T07:34:53;21.70;;;6.80;;
29430;SDS011;16404;49.902;10.074;2023-01-10T07:37:37;24.40;;;6.72;;
29430;SDS011;16404;49.902;10.074;2023-01-10T07:40:22;16.05;;;5.35;;
29430;SDS011;16404;49.902;10.074;2023-01-10T07:43:06;21.40;;;5.97;;
29430;SDS011;16404;49.902;10.074;2023-01-10T07:45:52;16.95;;;4.88;;
29430;SDS011;16404;49.902;10.074;2023-01-10T07:48:37;16.45;;;5.10;;
29430;SDS011;16404;49.902;10.074;2023-01-10T07:51:24;13.07;;;5.03;;
29430;SDS011;16404;49.902;10.074;2023-01-10T07:54:09;21.08;;;5.80;;
29430;SDS011;16404;49.902;10.074;2023-01-10T07:56:53;24.85;;;7.07;;
29430;SDS011;16404;49.902;10.074;2023-01-10T07:59:38;27.05;;;7.45;;
29430;SDS011;16404;49.902;10.074;2023-01-10T08:02:23;25.38;;;7.50;;
29430;SDS011;16404;49.902;10.074;2023-01-10T08:05:07;38.63;;;9.05;;
29430;SDS011;16404;49.902;10.074;2023-01-10T08:07:52;34.17;;;8.23;;
29430;SDS011;16404;49.902;10.074;2023-01-10T08:10:39;21.63;;;7.90;;
29430;SDS011;16404;49.902;10.074;2023-01-10T08:13:23;29.98;;;7.95;;
29430;SDS011;16404;49.902;10.074;2023-01-10T08:16:08;17.52;;;6.13;;
29430;SDS011;16404;49.902;10.074;2023-01-10T08:18:53;31.80;;;9.70;;
29430;SDS011;16404;49.902;10.074;2023-01-10T08:21:37;25.48;;;7.97;;
29430;SDS011;16404;49.902;10.074;2023-01-10T08:24:22;25.63;;;8.68;;
29430;SDS011;16404;49.902;10.074;2023-01-10T08:27:06;23.65;;;6.82;;
29430;SDS011;16404;49.902;10.074;2023-01-10T08:29:51;16.58;;;4.35;;
29430;SDS011;16404;49.902;10.074;2023-01-10T08:32:35;18.85;;;5.53;;
29430;SDS011;16404;49.902;10.074;2023-01-10T08:35:20;18.13;;;4.85;;
29430;SDS011;16404;49.902;10.074;2023-01-10T08:38:05;14.98;;;4.45;;
29430;SDS011;16404;49.902;10.074;2023-01-10T08:40:49;20.60;;;4.40;;
29430;SDS011;16404;49.902;10.074;2023-01-10T08:43:34;17.83;;;4.60;;
29430;SDS011;16404;49.902;10.074;2023-01-10T08:46:19;12.95;;;3.75;;
29430;SDS011;16404;49.902;10.074;2023-01-10T08:49:03;10.45;;;3.10;;
29430;SDS011;16404;49.902;10.074;2023-01-10T08:51:48;11.18;;;3.63;;
29430;SDS011;16404;49.902;10.074;2023-01-10T08:54:33;10.13;;;3.88;;
29430;SDS011;16404;49.902;10.074;2023-01-10T09:00:02;9.40;;;3.40;;
29430;SDS011;16404;49.902;10.074;2023-01-10T09:02:48;13.70;;;4.05;;
29430;SDS011;16404;49.902;10.074;2023-01-10T09:05:33;9.77;;;3.03;;
29430;SDS011;16404;49.902;10.074;2023-01-10T09:08:17;12.27;;;3.38;;
29430;SDS011;16404;49.902;10.074;2023-01-10T09:11:03;9.10;;;2.45;;
29430;SDS011;16404;49.902;10.074;2023-01-10T09:13:48;9.35;;;3.00;;
29430;SDS011;16404;49.902;10.074;2023-01-10T09:16:33;15.85;;;5.18;;
29430;SDS011;16404;49.902;10.074;2023-01-10T09:19:18;18.98;;;3.65;;
29430;SDS011;16404;49.902;10.074;2023-01-10T09:22:05;15.68;;;3.72;;
29430;SDS011;16404;49.902;10.074;2023-01-10T09:24:51;12.52;;;2.22;;
29430;SDS011;16404;49.902;10.074;2023-01-10T09:27:35;15.85;;;3.00;;
29430;SDS011;16404;49.902;10.074;2023-01-10T09:30:20;10.82;;;3.30;;
29430;SDS011;16404;49.902;10.074;2023-01-10T09:33:05;15.65;;;3.05;;
29430;SDS011;16404;49.902;10.074;2023-01-10T09:38:37;11.63;;;2.80;;
29430;SDS011;16404;49.902;10.074;2023-01-10T09:47:08;12.25;;;4.68;;
29430;SDS011;16404;49.902;10.074;2023-01-10T09:50:17;19.35;;;5.72;;
29430;SDS011;16404;49.902;10.074;2023-01-10T09:53:21;12.82;;;3.17;;
29430;SDS011;16404;49.902;10.074;2023-01-10T09:56:08;13.48;;;5.20;;
29430;SDS011;16404;49.902;10.074;2023-01-10T09:58:56;21.25;;;3.72;;
29430;SDS011;16404;49.902;10.074;2023-01-10T10:01:42;11.43;;;3.63;;
29430;SDS011;16404;49.902;10.074;2023-01-10T10:04:34;10.65;;;3.40;;
29430;SDS011;16404;49.902;10.074;2023-01-10T10:07:19;12.77;;;4.38;;
29430;SDS011;16404;49.902;10.074;2023-01-10T10:16:12;10.88;;;3.00;;
29430;SDS011;16404;49.902;10.074;2023-01-10T10:22:45;11.73;;;4.32;;
29430;SDS011;16404;49.902;10.074;2023-01-10T10:28:51;14.38;;;5.53;;
29430;SDS011;16404;49.902;10.074;2023-01-10T10:34:46;17.30;;;4.90;;
29430;SDS011;16404;49.902;10.074;2023-01-10T10:37:38;12.27;;;4.32;;
29430;SDS011;16404;49.902;10.074;2023-01-10T10:40:27;16.67;;;5.57;;
29430;SDS011;16404;49.902;10.074;2023-01-10T10:43:19;16.75;;;3.90;;
29430;SDS011;16404;49.902;10.074;2023-01-10T10:46:14;11.85;;;3.20;;
29430;SDS011;16404;49.902;10.074;2023-01-10T10:52:23;11.73;;;3.30;;
29430;SDS011;16404;49.902;10.074;2023-01-10T10:55:41;11.38;;;3.83;;
29430;SDS011;16404;49.902;10.074;2023-01-10T10:58:31;16.23;;;4.32;;
29430;SDS011;16404;49.902;10.074;2023-01-10T11:01:19;15.23;;;4.25;;
29430;SDS011;16404;49.902;10.074;2023-01-10T11:04:06;16.52;;;4.05;;
29430;SDS011;16404;49.902;10.074;2023-01-10T11:06:54;9.57;;;3.22;;
29430;SDS011;16404;49.902;10.074;2023-01-10T11:09:39;14.48;;;3.67;;
29430;SDS011;16404;49.902;10.074;2023-01-10T11:12:31;18.25;;;4.43;;
29430;SDS011;16404;49.902;10.074;2023-01-10T11:18:23;21.13;;;5.45;;
29430;SDS011;16404;49.902;10.074;2023-01-10T11:21:18;10.77;;;4.60;;
29430;SDS011;16404;49.902;10.074;2023-01-10T11:24:02;18.63;;;5.28;;
29430;SDS011;16404;49.902;10.074;2023-01-10T11:26:47;15.13;;;3.75;;
29430;SDS011;16404;49.902;10.074;2023-01-10T11:29:36;17.83;;;4.43;;
29430;SDS011;16404;49.902;10.074;2023-01-10T11:32:27;12.50;;;3.95;;
29430;SDS011;16404;49.902;10.074;2023-01-10T11:35:18;11.40;;;3.40;;
29430;SDS011;16404;49.902;10.074;2023-01-10T11:41:02;14.48;;;4.03;;
29430;SDS011;16404;49.902;10.074;2023-01-10T11:43:48;15.70;;;3.78;;
29430;SDS011;16404;49.902;10.074;2023-01-10T11:46:33;16.60;;;3.90;;
29430;SDS011;16404;49.902;10.074;2023-01-10T11:49:27;13.45;;;4.07;;
29430;SDS011;16404;49.902;10.074;2023-01-10T11:52:24;15.07;;;3.67;;
29430;SDS011;16404;49.902;10.074;2023-01-10T11:55:25;17.92;;;5.28;;
29430;SDS011;16404;49.902;10.074;2023-01-10T11:58:12;15.52;;;5.80;;
29430;SDS011;16404;49.902;10.074;2023-01-10T12:00:57;12.18;;;3.35;;
29430;SDS011;16404;49.902;10.074;2023-01-10T12:03:42;14.80;;;3.85;;
29430;SDS011;16404;49.902;10.074;2023-01-10T12:06:29;14.60;;;3.35;;
29430;SDS011;16404;49.902;10.074;2023-01-10T12:09:30;15.73;;;3.05;;
29430;SDS011;16404;49.902;10.074;2023-01-10T12:12:23;12.43;;;2.95;;
29430;SDS011;16404;49.902;10.074;2023-01-10T12:15:19;17.23;;;3.85;;
29430;SDS011;16404;49.902;10.074;2023-01-10T12:18:04;16.23;;;3.70;;
29430;SDS011;16404;49.902;10.074;2023-01-10T12:20:50;14.25;;;3.78;;
29430;SDS011;16404;49.902;10.074;2023-01-10T12:23:35;13.00;;;3.10;;
29430;SDS011;16404;49.902;10.074;2023-01-10T12:26:25;19.38;;;3.38;;
29430;SDS011;16404;49.902;10.074;2023-01-10T12:29:16;14.57;;;3.60;;
29430;SDS011;16404;49.902;10.074;2023-01-10T12:32:05;12.30;;;3.65;;
29430;SDS011;16404;49.902;10.074;2023-01-10T12:35:10;10.70;;;3.40;;
29430;SDS011;16404;49.902;10.074;2023-01-10T12:45:37;17.70;;;4.35;;
29430;SDS011;16404;49.902;10.074;2023-01-10T12:51:29;21.75;;;6.82;;
29430;SDS011;16404;49.902;10.074;2023-01-10T12:54:16;15.73;;;4.57;;
29430;SDS011;16404;49.902;10.074;2023-01-10T12:57:50;16.02;;;5.53;;
29430;SDS011;16404;49.902;10.074;2023-01-10T13:00:17;22.58;;;7.20;;
29430;SDS011;16404;49.902;10.074;2023-01-10T13:03:06;17.30;;;6.70;;
29430;SDS011;16404;49.902;10.074;2023-01-10T13:05:58;23.20;;;6.55;;
29430;SDS011;16404;49.902;10.074;2023-01-10T13:08:43;17.55;;;5.03;;
29430;SDS011;16404;49.902;10.074;2023-01-10T13:14:16;15.80;;;3.83;;
29430;SDS011;16404;49.902;10.074;2023-01-10T13:20:30;15.75;;;4.47;;
29430;SDS011;16404;49.902;10.074;2023-01-10T13:23:22;17.00;;;3.75;;
29430;SDS011;16404;49.902;10.074;2023-01-10T13:26:13;12.05;;;3.70;;
29430;SDS011;16404;49.902;10.074;2023-01-10T13:28:58;18.98;;;4.93;;
29430;SDS011;16404;49.902;10.074;2023-01-10T13:31:44;10.80;;;2.63;;
29430;SDS011;16404;49.902;10.074;2023-01-10T13:34:32;13.98;;;3.50;;
29430;SDS011;16404;49.902;10.074;2023-01-10T13:40:07;12.38;;;2.60;;
29430;SDS011;16404;49.902;10.074;2023-01-10T13:43:23;17.30;;;4.88;;
29430;SDS011;16404;49.902;10.074;2023-01-10T13:58:39;13.50;;;3.30;;
29430;SDS011;16404;49.902;10.074;2023-01-10T14:01:46;20.35;;;3.60;;
29430;SDS011;16404;49.902;10.074;2023-01-10T14:04:52;16.42;;;3.78;;
29430;SDS011;16404;49.902;10.074;2023-01-10T14:07:42;20.35;;;4.90;;
29430;SDS011;16404;49.902;10.074;2023-01-10T14:10:28;17.33;;;3.80;;
29430;SDS011;16404;49.902;10.074;2023-01-10T14:13:17;23.13;;;7.20;;
29430;SDS011;16404;49.902;10.074;2023-01-10T14:16:05;22.33;;;4.72;;
29430;SDS011;16404;49.902;10.074;2023-01-10T14:19:20;14.45;;;2.85;;
29430;SDS011;16404;49.902;10.074;2023-01-10T14:22:26;22.77;;;4.35;;
29430;SDS011;16404;49.902;10.074;2023-01-10T14:25:16;13.88;;;3.50;;
29430;SDS011;16404;49.902;10.074;2023-01-10T14:28:04;19.90;;;5.50;;
29430;SDS011;16404;49.902;10.074;2023-01-10T14:34:20;93.38;;;24.65;;
29430;SDS011;16404;49.902;10.074;2023-01-10T14:37:12;32.60;;;6.93;;
29430;SDS011;16404;49.902;10.074;2023-01-10T14:40:05;21.35;;;6.38;;
29430;SDS011;16404;49.902;10.074;2023-01-10T14:43:02;19.92;;;5.00;;
29430;SDS011;16404;49.902;10.074;2023-01-10T14:46:09;18.83;;;7.72;;
29430;SDS011;16404;49.902;10.074;2023-01-10T14:48:58;32.63;;;8.45;;
29430;SDS011;16404;49.902;10.074;2023-01-10T14:54:27;27.30;;;10.48;;
29430;SDS011;16404;49.902;10.074;2023-01-10T14:57:19;19.25;;;5.22;;
29430;SDS011;16404;49.902;10.074;2023-01-10T15:00:07;21.95;;;7.45;;
29430;SDS011;16404;49.902;10.074;2023-01-10T15:02:56;33.42;;;10.38;;
29430;SDS011;16404;49.902;10.074;2023-01-10T15:05:45;23.48;;;7.03;;
29430;SDS011;16404;49.902;10.074;2023-01-10T15:08:33;31.08;;;9.30;;
29430;SDS011;16404;49.902;10.074;2023-01-10T15:11:18;41.22;;;11.65;;
29430;SDS011;16404;49.902;10.074;2023-01-10T15:14:04;24.70;;;8.43;;
29430;SDS011;16404;49.902;10.074;2023-01-10T15:16:51;20.67;;;6.75;;
29430;SDS011;16404;49.902;10.074;2023-01-10T15:19:38;16.88;;;6.53;;
29430;SDS011;16404;49.902;10.074;2023-01-10T15:28:15;22.50;;;6.55;;
29430;SDS011;16404;49.902;10.074;2023-01-10T15:31:02;19.40;;;5.93;;
29430;SDS011;16404;49.902;10.074;2023-01-10T15:33:48;22.58;;;8.02;;
29430;SDS011;16404;49.902;10.074;2023-01-10T15:36:41;17.98;;;7.15;;
29430;SDS011;16404;49.902;10.074;2023-01-10T15:39:36;29.73;;;7.80;;
29430;SDS011;16404;49.902;10.074;2023-01-10T15:42:23;23.40;;;8.60;;
29430;SDS011;16404;49.902;10.074;2023-01-10T15:45:27;24.58;;;7.75;;
29430;SDS011;16404;49.902;10.074;2023-01-10T15:51:26;20.42;;;6.07;;
29430;SDS011;16404;49.902;10.074;2023-01-10T15:57:04;16.58;;;5.88;;
29430;SDS011;16404;49.902;10.074;2023-01-10T15:59:57;22.95;;;6.53;;
29430;SDS011;16404;49.902;10.074;2023-01-10T16:02:42;22.80;;;6.10;;
29430;SDS011;16404;49.902;10.074;2023-01-10T16:05:28;20.58;;;6.05;;
29430;SDS011;16404;49.902;10.074;2023-01-10T16:08:12;25.70;;;6.35;;
29430;SDS011;16404;49.902;10.074;2023-01-10T16:11:24;26.73;;;6.88;;
29430;SDS011;16404;49.902;10.074;2023-01-10T16:14:30;20.23;;;4.85;;
29430;SDS011;16404;49.902;10.074;2023-01-10T16:17:16;24.17;;;5.60;;
29430;SDS011;16404;49.902;10.074;2023-01-10T16:20:01;21.23;;;5.93;;
29430;SDS011;16404;49.902;10.074;2023-01-10T16:22:46;19.88;;;6.13;;
29430;SDS011;16404;49.902;10.074;2023-01-10T16:25:36;29.35;;;5.10;;
29430;SDS011;16404;49.902;10.074;2023-01-10T16:28:21;18.77;;;4.95;;
29430;SDS011;16404;49.902;10.074;2023-01-10T16:31:11;22.73;;;5.45;;
29430;SDS011;16404;49.902;10.074;2023-01-10T16:33:57;20.55;;;4.93;;
29430;SDS011;16404;49.902;10.074;2023-01-10T16:36:42;18.40;;;4.90;;
29430;SDS011;16404;49.902;10.074;2023-01-10T16:39:26;21.02;;;7.72;;
29430;SDS011;16404;49.902;10.074;2023-01-10T16:42:11;18.08;;;6.47;;
29430;SDS011;16404;49.902;10.074;2023-01-10T16:45:14;21.75;;;5.47;;
29430;SDS011;16404;49.902;10.074;2023-01-10T16:47:59;20.88;;;4.72;;
29430;SDS011;16404;49.902;10.074;2023-01-10T16:50:49;21.33;;;4.68;;
29430;SDS011;16404;49.902;10.074;2023-01-10T16:53:34;25.00;;;5.43;;
29430;SDS011;16404;49.902;10.074;2023-01-10T16:56:23;18.52;;;4.80;;
29430;SDS011;16404;49.902;10.074;2023-01-10T16:59:12;24.33;;;4.97;;
29430;SDS011;16404;49.902;10.074;2023-01-10T17:01:58;19.02;;;5.13;;
29430;SDS011;16404;49.902;10.074;2023-01-10T17:04:43;17.83;;;5.03;;
29430;SDS011;16404;49.902;10.074;2023-01-10T17:07:28;24.40;;;5.45;;
29430;SDS011;16404;49.902;10.074;2023-01-10T17:10:12;20.75;;;4.55;;
29430;SDS011;16404;49.902;10.074;2023-01-10T17:12:57;19.33;;;4.30;;
29430;SDS011;16404;49.902;10.074;2023-01-10T17:15:44;21.42;;;3.60;;
29430;SDS011;16404;49.902;10.074;2023-01-10T17:18:29;18.08;;;4.18;;
29430;SDS011;16404;49.902;10.074;2023-01-10T17:21:15;25.42;;;5.97;;
29430;SDS011;16404;49.902;10.074;2023-01-10T17:24:03;22.40;;;4.13;;
29430;SDS011;16404;49.902;10.074;2023-01-10T17:29:33;19.02;;;4.72;;
29430;SDS011;16404;49.902;10.074;2023-01-10T17:32:18;18.52;;;4.13;;
29430;SDS011;16404;49.902;10.074;2023-01-10T17:35:02;14.40;;;3.50;;
29430;SDS011;16404;49.902;10.074;2023-01-10T17:37:47;19.90;;;4.65;;
29430;SDS011;16404;49.902;10.074;2023-01-10T17:40:32;18.70;;;4.30;;
29430;SDS011;16404;49.902;10.074;2023-01-10T17:43:17;31.67;;;5.32;;
29430;SDS011;16404;49.902;10.074;2023-01-10T17:46:02;19.27;;;5.10;;
29430;SDS011;16404;49.902;10.074;2023-01-10T17:48:50;21.33;;;4.80;;
29430;SDS011;16404;49.902;10.074;2023-01-10T17:51:34;23.45;;;4.93;;
29430;SDS011;16404;49.902;10.074;2023-01-10T17:54:19;22.73;;;5.60;;
29430;SDS011;16404;49.902;10.074;2023-01-10T17:57:04;25.08;;;4.88;;
29430;SDS011;16404;49.902;10.074;2023-01-10T17:59:48;17.95;;;6.07;;
29430;SDS011;16404;49.902;10.074;2023-01-10T18:02:35;28.90;;;5.53;;
29430;SDS011;16404;49.902;10.074;2023-01-10T18:05:20;20.85;;;5.60;;
29430;SDS011;16404;49.902;10.074;2023-01-10T18:08:04;25.45;;;5.18;;
29430;SDS011;16404;49.902;10.074;2023-01-10T18:10:50;27.40;;;6.07;;
29430;SDS011;16404;49.902;10.074;2023-01-10T18:13:40;26.40;;;6.13;;
29430;SDS011;16404;49.902;10.074;2023-01-10T18:16:25;26.45;;;6.57;;
29430;SDS011;16404;49.902;10.074;2023-01-10T18:19:09;17.77;;;6.00;;
29430;SDS011;16404;49.902;10.074;2023-01-10T18:21:54;16.33;;;5.70;;
29430;SDS011;16404;49.902;10.074;2023-01-10T18:24:39;19.73;;;4.72;;
29430;SDS011;16404;49.902;10.074;2023-01-10T18:27:24;22.67;;;4.68;;
29430;SDS011;16404;49.902;10.074;2023-01-10T18:30:10;24.15;;;4.53;;
29430;SDS011;16404;49.902;10.074;2023-01-10T18:32:54;18.40;;;4.47;;
29430;SDS011;16404;49.902;10.074;2023-01-10T18:35:39;17.17;;;5.28;;
29430;SDS011;16404;49.902;10.074;2023-01-10T18:38:24;23.17;;;5.45;;
29430;SDS011;16404;49.902;10.074;2023-01-10T18:41:08;22.85;;;7.60;;
29430;SDS011;16404;49.902;10.074;2023-01-10T18:43:53;22.88;;;5.35;;
29430;SDS011;16404;49.902;10.074;2023-01-10T18:46:38;20.48;;;5.47;;
29430;SDS011;16404;49.902;10.074;2023-01-10T18:49:22;21.52;;;5.63;;